createdAt,value
2023-01-29T00:02:11.676Z,103188.53
2023-01-29T00:04:38.553Z,103183.38
2023-01-29T00:07:05.428Z,103178.06
2023-01-29T00:09:32.459Z,103171.13
2023-01-29T00:11:59.444Z,103171.75
2023-01-29T00:14:27.708Z,103156.28
2023-01-29T00:16:54.916Z,103158.22
2023-01-29T00:19:21.769Z,103146.31
2023-01-29T00:21:48.633Z,103141.78
2023-01-29T00:24:15.516Z,103141.16
2023-01-29T00:26:43.396Z,103135.22
2023-01-29T00:29:10.462Z,103136.00
2023-01-29T00:31:37.476Z,103130.84
2023-01-29T00:34:04.419Z,103127.63
2023-01-29T00:36:31.412Z,103137.94
2023-01-29T00:38:59.835Z,103140.69
2023-01-29T00:41:50.664Z,103146.66
2023-01-29T00:44:37.196Z,103145.84
2023-01-29T00:47:04.782Z,103142.63
2023-01-29T00:49:31.583Z,103140.69
2023-01-29T00:52:17.446Z,103125.38
2023-01-29T00:54:44.221Z,103140.69
2023-01-29T00:57:11.277Z,103141.50
2023-01-29T00:59:38.265Z,103131.16
2023-01-29T01:02:23.726Z,103130.53
2023-01-29T01:04:50.665Z,103124.75
2023-01-29T01:07:17.535Z,103123.78
2023-01-29T01:10:02.793Z,103122.81
2023-01-29T01:12:29.873Z,103124.59
2023-01-29T01:14:56.813Z,103121.84
2023-01-29T01:17:24.190Z,103111.69
2023-01-29T01:19:51.035Z,103111.69
2023-01-29T01:22:17.931Z,103109.75
2023-01-29T01:24:44.906Z,103114.91
2023-01-29T01:27:12.583Z,103107.31
2023-01-29T01:29:39.543Z,103109.75
2023-01-29T01:32:06.806Z,103114.72
2023-01-29T01:34:33.906Z,103122.63
2023-01-29T01:37:00.827Z,103129.56
2023-01-29T01:39:27.917Z,103120.06
2023-01-29T01:41:55.300Z,103129.22
2023-01-29T01:45:13.368Z,103129.41
2023-01-29T01:48:13.216Z,103126.63
2023-01-29T01:51:06.695Z,103134.38
2023-01-29T01:53:38.719Z,103126.84
2023-01-29T01:56:09.724Z,103125.84
2023-01-29T01:58:44.341Z,103128.44
2023-01-29T02:01:12.916Z,103130.03
2023-01-29T02:04:08.810Z,103122.13
2023-01-29T02:06:58.827Z,103125.69
2023-01-29T02:09:38.016Z,103123.09
2023-01-29T02:12:12.558Z,103119.72
2023-01-29T02:14:41.710Z,103123.09
2023-01-29T02:17:14.822Z,103123.91
2023-01-29T02:20:06.034Z,103126.63
2023-01-29T02:22:38.692Z,103123.09
2023-01-29T02:25:27.448Z,103124.06
2023-01-29T02:28:22.192Z,103125.69
2023-01-29T02:31:00.295Z,103125.69
2023-01-29T02:33:33.165Z,103120.53
2023-01-29T02:36:33.021Z,103127.28
2023-01-29T02:39:24.811Z,103133.06
2023-01-29T02:42:02.594Z,103143.22
2023-01-29T02:44:40.842Z,103134.50
2023-01-29T02:47:23.180Z,103148.22
2023-01-29T02:50:26.587Z,103147.56
2023-01-29T02:53:14.037Z,103142.41
2023-01-29T02:56:00.365Z,103142.41
2023-01-29T02:59:08.390Z,103140.47
2023-01-29T03:01:51.866Z,103144.00
2023-01-29T03:04:27.927Z,103135.31
2023-01-29T03:07:03.269Z,103129.97
2023-01-29T03:09:50.632Z,103126.56
2023-01-29T03:12:34.164Z,103126.41
2023-01-29T03:15:11.787Z,103131.41
2023-01-29T03:17:57.563Z,103122.06
2023-01-29T03:20:32.289Z,103121.09
2023-01-29T03:23:06.702Z,103117.09
2023-01-29T03:25:54.998Z,103105.94
2023-01-29T03:28:41.026Z,103109.50
2023-01-29T03:31:31.016Z,103106.56
2023-01-29T03:34:24.734Z,103100.78
2023-01-29T03:36:57.937Z,103088.88
2023-01-29T03:39:29.905Z,103085.31
2023-01-29T03:42:12.221Z,103078.56
2023-01-29T03:44:47.526Z,103070.81
2023-01-29T03:47:34.702Z,103075.34
2023-01-29T03:50:12.976Z,103076.31
2023-01-29T03:52:49.351Z,103071.16
2023-01-29T03:55:27.998Z,103072.78
2023-01-29T03:57:55.024Z,103072.16
2023-01-29T04:00:35.190Z,103067.00
2023-01-29T04:03:13.920Z,103068.56
2023-01-29T04:05:48.001Z,103069.56
2023-01-29T04:08:23.373Z,103068.56
2023-01-29T04:10:53.164Z,103062.63
2023-01-29T04:13:20.550Z,103051.69
2023-01-29T04:15:59.730Z,103053.47
2023-01-29T04:18:26.985Z,103038.16
2023-01-29T04:20:54.167Z,103053.78
2023-01-29T04:23:26.996Z,103054.63
2023-01-29T04:26:24.587Z,103050.25
2023-01-29T04:29:24.583Z,103044.31
2023-01-29T04:32:07.820Z,103047.84
2023-01-29T04:35:12.457Z,103042.84
2023-01-29T04:38:10.652Z,103040.28
2023-01-29T04:40:48.866Z,103043.84
2023-01-29T04:43:36.554Z,103038.69
2023-01-29T04:46:32.073Z,103041.25
2023-01-29T04:49:12.575Z,103033.53
2023-01-29T04:51:50.376Z,103038.69
2023-01-29T04:54:36.494Z,103031.91
2023-01-29T04:57:10.583Z,103020.34
2023-01-29T04:59:51.172Z,103027.28
2023-01-29T05:02:21.371Z,103020.34
2023-01-29T05:04:50.271Z,103020.34
2023-01-29T05:07:19.026Z,103020.50
2023-01-29T05:09:47.215Z,103014.56
2023-01-29T05:12:17.690Z,103014.56
2023-01-29T05:14:46.090Z,103013.94
2023-01-29T05:17:18.847Z,103018.28
2023-01-29T05:19:46.887Z,103019.88
2023-01-29T05:22:17.334Z,103018.44
2023-01-29T05:24:44.940Z,103014.28
2023-01-29T05:27:44.662Z,103022.97
2023-01-29T05:30:11.967Z,103028.13
2023-01-29T05:32:39.920Z,103025.72
2023-01-29T05:35:07.222Z,103031.25
2023-01-29T05:37:34.002Z,103032.03
2023-01-29T05:40:00.781Z,103018.19
2023-01-29T05:42:27.629Z,103028.50
2023-01-29T05:44:54.469Z,103024.94
2023-01-29T05:47:21.974Z,103023.16
2023-01-29T05:49:48.842Z,103027.69
2023-01-29T05:52:15.688Z,103034.44
2023-01-29T05:54:42.501Z,103033.28
2023-01-29T05:57:09.385Z,103023.97
2023-01-29T05:59:36.184Z,103010.44
2023-01-29T06:02:03.132Z,103001.91
2023-01-29T06:04:30.018Z,103004.47
2023-01-29T06:06:56.998Z,102998.53
2023-01-29T06:09:23.877Z,102989.19
2023-01-29T06:11:50.824Z,102996.94
2023-01-29T06:14:17.686Z,102988.38
2023-01-29T06:16:44.515Z,102991.59
2023-01-29T06:19:11.299Z,102993.53
2023-01-29T06:21:38.120Z,102987.59
2023-01-29T06:24:05.252Z,102985.00
2023-01-29T06:26:32.195Z,102988.56
2023-01-29T06:28:59.083Z,102981.78
2023-01-29T06:31:37.759Z,102979.22
2023-01-29T06:34:07.806Z,102975.69
2023-01-29T06:36:34.753Z,102974.69
2023-01-29T06:39:01.595Z,102980.47
2023-01-29T06:41:28.847Z,102966.94
2023-01-29T06:43:55.792Z,102979.69
2023-01-29T06:46:22.658Z,102981.47
2023-01-29T06:48:49.541Z,102983.06
2023-01-29T06:51:16.369Z,102988.03
2023-01-29T06:53:45.791Z,102985.28
2023-01-29T06:56:13.131Z,102971.78
2023-01-29T06:58:40.056Z,102970.16
2023-01-29T07:01:09.358Z,102973.72
2023-01-29T07:03:36.810Z,102978.88
2023-01-29T07:06:04.816Z,102967.75
2023-01-29T07:08:31.798Z,102968.56
2023-01-29T07:11:00.599Z,102965.00
2023-01-29T07:13:27.619Z,102979.50
2023-01-29T07:15:55.265Z,102977.72
2023-01-29T07:18:22.308Z,102969.81
2023-01-29T07:20:49.268Z,102972.41
2023-01-29T07:23:16.758Z,102973.38
2023-01-29T07:25:43.979Z,102981.09
2023-01-29T07:28:10.851Z,102980.94
2023-01-29T07:30:37.790Z,102971.41
2023-01-29T07:33:07.599Z,102966.25
2023-01-29T07:35:43.450Z,102975.78
2023-01-29T07:38:11.298Z,102981.72
2023-01-29T07:40:38.389Z,102976.56
2023-01-29T07:43:07.382Z,102964.31
2023-01-29T07:45:36.872Z,102969.47
2023-01-29T07:48:05.285Z,102956.41
2023-01-29T07:50:34.386Z,102952.66
2023-01-29T07:53:02.187Z,102952.03
2023-01-29T07:55:29.179Z,102953.28
2023-01-29T07:57:57.051Z,102949.75
2023-01-29T08:00:24.111Z,102938.44
2023-01-29T08:02:51.066Z,102931.69
2023-01-29T08:05:17.962Z,102941.00
2023-01-29T08:07:49.257Z,102930.69
2023-01-29T08:10:22.165Z,102926.97
2023-01-29T08:13:00.507Z,102928.75
2023-01-29T08:15:28.185Z,102928.41
2023-01-29T08:17:57.956Z,102931.78
2023-01-29T08:20:25.870Z,102926.44
2023-01-29T08:23:04.675Z,102929.66
2023-01-29T08:25:32.466Z,102931.25
2023-01-29T08:28:02.427Z,102927.53
2023-01-29T08:30:32.185Z,102927.31
2023-01-29T08:32:59.028Z,102925.38
2023-01-29T08:35:26.427Z,102921.81
2023-01-29T08:37:54.654Z,102920.84
2023-01-29T08:40:21.947Z,102915.34
2023-01-29T08:42:48.865Z,102905.63
2023-01-29T08:45:15.906Z,102900.09
2023-01-29T08:47:49.994Z,102901.72
2023-01-29T08:50:18.418Z,102902.97
2023-01-29T08:52:46.340Z,102906.00
2023-01-29T08:55:13.916Z,102897.25
2023-01-29T08:57:41.209Z,102895.50
2023-01-29T09:00:12.181Z,102897.69
2023-01-29T09:02:39.059Z,102898.31
2023-01-29T09:05:06.492Z,102901.53
2023-01-29T09:07:33.693Z,102897.16
2023-01-29T09:10:00.619Z,102898.59
2023-01-29T09:12:27.418Z,102898.22
2023-01-29T09:14:54.432Z,102897.88
2023-01-29T09:17:21.611Z,102896.88
2023-01-29T09:19:48.409Z,102893.34
2023-01-29T09:22:15.437Z,102885.81
2023-01-29T09:24:42.355Z,102894.19
2023-01-29T09:27:10.215Z,102893.22
2023-01-29T09:29:37.327Z,102899.00
2023-01-29T09:32:05.986Z,102897.66
2023-01-29T09:34:34.452Z,102900.69
2023-01-29T09:37:01.485Z,102906.69
2023-01-29T09:39:28.470Z,102902.16
2023-01-29T09:42:16.287Z,102891.03
2023-01-29T09:44:52.094Z,102895.22
2023-01-29T09:47:20.451Z,102900.00
2023-01-29T09:49:50.801Z,102893.69
2023-01-29T09:52:26.464Z,102899.72
2023-01-29T09:54:56.386Z,102890.97
2023-01-29T09:57:29.493Z,102902.13
2023-01-29T09:59:56.483Z,102897.19
2023-01-29T10:02:36.287Z,102902.00
2023-01-29T10:05:35.319Z,102893.09
2023-01-29T10:08:18.007Z,102895.31
2023-01-29T10:10:49.757Z,102891.72
2023-01-29T10:13:28.709Z,102887.56
2023-01-29T10:16:23.564Z,102886.38
2023-01-29T10:19:16.746Z,102889.75
2023-01-29T10:21:49.529Z,102888.78
2023-01-29T10:24:35.056Z,102881.22
2023-01-29T10:27:12.475Z,102883.19
2023-01-29T10:29:42.144Z,102882.41
2023-01-29T10:32:16.070Z,102876.03
2023-01-29T10:34:49.537Z,102867.50
2023-01-29T10:37:19.738Z,102862.88
2023-01-29T10:39:46.798Z,102856.13
2023-01-29T10:42:38.594Z,102841.25
2023-01-29T10:45:30.492Z,102845.03
2023-01-29T10:47:57.403Z,102836.72
2023-01-29T10:50:52.623Z,102835.97
2023-01-29T10:53:31.566Z,102817.53
2023-01-29T10:56:05.822Z,102819.53
2023-01-29T10:59:16.447Z,102826.28
2023-01-29T11:01:43.413Z,102811.44
2023-01-29T11:04:13.229Z,102806.88
2023-01-29T11:06:40.323Z,102807.47
2023-01-29T11:12:15.040Z,102800.72
2023-01-29T11:14:55.776Z,102801.56
2023-01-29T11:17:25.969Z,102793.81
2023-01-29T11:19:57.073Z,102788.41
2023-01-29T11:22:26.611Z,102797.38
2023-01-29T11:25:20.108Z,102799.97
2023-01-29T11:27:58.554Z,102785.28
2023-01-29T11:30:40.048Z,102785.69
2023-01-29T11:33:08.381Z,102782.91
2023-01-29T11:35:36.804Z,102786.50
2023-01-29T11:38:10.057Z,102786.50
2023-01-29T11:40:40.056Z,102768.16
2023-01-29T11:43:23.869Z,102773.94
2023-01-29T11:45:54.153Z,102770.38
2023-01-29T11:48:23.379Z,102759.63
2023-01-29T11:50:58.370Z,102761.41
2023-01-29T11:53:42.295Z,102763.00
2023-01-29T11:56:49.015Z,102749.09
2023-01-29T11:59:48.719Z,102761.00
2023-01-29T12:02:26.915Z,102753.25
2023-01-29T12:05:00.414Z,102751.47
2023-01-29T12:07:28.884Z,102750.69
2023-01-29T12:10:01.175Z,102739.53
2023-01-29T12:12:35.468Z,102739.72
2023-01-29T12:15:18.131Z,102729.38
2023-01-29T12:18:04.882Z,102719.22
2023-01-29T12:21:07.230Z,102715.25
2023-01-29T12:23:58.379Z,102702.94
2023-01-29T12:27:15.067Z,102700.94
2023-01-29T12:29:57.175Z,102698.19
2023-01-29T12:32:48.576Z,102687.44
2023-01-29T12:35:46.153Z,102693.81
2023-01-29T12:38:22.051Z,102678.28
2023-01-29T12:41:23.947Z,102678.91
2023-01-29T12:44:01.688Z,102680.69
2023-01-29T12:46:34.277Z,102664.41
2023-01-29T12:49:07.714Z,102658.22
2023-01-29T12:51:45.215Z,102656.25
2023-01-29T12:54:22.440Z,102653.66
2023-01-29T12:56:53.750Z,102646.09
2023-01-29T12:59:43.415Z,102634.75
2023-01-29T13:02:26.115Z,102629.78
2023-01-29T13:05:19.179Z,102611.88
2023-01-29T13:07:50.440Z,102599.56
2023-01-29T13:10:24.092Z,102600.97
2023-01-29T13:13:14.048Z,102594.19
2023-01-29T13:15:44.385Z,102584.44
2023-01-29T13:18:33.593Z,102570.94
2023-01-29T13:21:01.856Z,102568.94
2023-01-29T13:23:35.820Z,102568.56
2023-01-29T13:26:03.908Z,102550.06
2023-01-29T13:28:31.121Z,102549.50
2023-01-29T13:31:13.552Z,102540.94
2023-01-29T13:33:43.689Z,102535.56
2023-01-29T13:36:30.107Z,102533.41
2023-01-29T13:39:09.209Z,102535.56
2023-01-29T13:41:40.265Z,102537.97
2023-01-29T13:44:21.712Z,102525.22
2023-01-29T13:46:56.664Z,102521.25
2023-01-29T13:49:44.233Z,102522.44
2023-01-29T13:52:31.859Z,102528.19
2023-01-29T13:55:06.223Z,102524.03
2023-01-29T13:57:43.919Z,102518.88
2023-01-29T14:00:24.572Z,102516.47
2023-01-29T14:03:00.504Z,102519.63
2023-01-29T14:05:30.325Z,102516.66
2023-01-29T14:08:06.873Z,102517.84
2023-01-29T14:10:35.200Z,102514.06
2023-01-29T14:13:04.935Z,102520.44
2023-01-29T14:15:34.874Z,102512.88
2023-01-29T14:18:21.355Z,102506.91
2023-01-29T14:20:48.267Z,102507.50
2023-01-29T14:23:34.140Z,102498.56
2023-01-29T14:26:04.494Z,102494.16
2023-01-29T14:28:34.339Z,102499.34
2023-01-29T14:31:01.971Z,102506.91
2023-01-29T14:33:36.401Z,102499.94
2023-01-29T14:36:23.975Z,102493.78
2023-01-29T14:38:53.857Z,102490.00
2023-01-29T14:41:31.619Z,102486.19
2023-01-29T14:44:35.785Z,102488.97
2023-01-29T14:47:02.759Z,102473.06
2023-01-29T14:49:52.585Z,102471.47
2023-01-29T14:52:23.552Z,102473.47
2023-01-29T14:54:51.656Z,102475.28
2023-01-29T14:57:19.547Z,102470.09
2023-01-29T15:00:00.897Z,102476.25
2023-01-29T15:02:59.830Z,102468.91
2023-01-29T15:05:37.672Z,102468.91
2023-01-29T15:08:36.032Z,102449.00
2023-01-29T15:11:32.584Z,102443.63
2023-01-29T15:14:24.261Z,102443.41
2023-01-29T15:17:06.398Z,102448.38
2023-01-29T15:19:40.387Z,102442.41
2023-01-29T15:22:18.784Z,102438.03
2023-01-29T15:24:47.529Z,102440.63
2023-01-29T15:27:20.124Z,102438.44
2023-01-29T15:30:08.357Z,102438.44
2023-01-29T15:32:40.595Z,102451.78
2023-01-29T15:35:20.430Z,102437.66
2023-01-29T15:38:05.533Z,102434.09
2023-01-29T15:40:34.499Z,102424.13
2023-01-29T15:43:01.520Z,102418.97
2023-01-29T15:45:31.408Z,102415.78
2023-01-29T15:48:08.709Z,102420.34
2023-01-29T15:50:39.660Z,102418.56
2023-01-29T15:53:13.778Z,102413.81
2023-01-29T15:55:41.202Z,102408.81
2023-01-29T15:58:16.471Z,102416.00
2023-01-29T16:00:51.680Z,102411.84
2023-01-29T16:03:24.871Z,102411.84
2023-01-29T16:05:53.122Z,102418.19
2023-01-29T16:08:22.192Z,102416.00
2023-01-29T16:10:55.450Z,102423.19
2023-01-29T16:13:29.726Z,102423.97
2023-01-29T16:16:06.037Z,102423.38
2023-01-29T16:18:41.085Z,102418.81
2023-01-29T16:21:23.047Z,102413.63
2023-01-29T16:23:53.034Z,102416.63
2023-01-29T16:26:35.970Z,102420.59
2023-01-29T16:29:08.510Z,102433.31
2023-01-29T16:31:37.473Z,102425.38
2023-01-29T16:34:18.421Z,102414.44
2023-01-29T16:36:50.066Z,102425.75
2023-01-29T16:39:23.407Z,102413.06
2023-01-29T16:42:09.891Z,102394.38
2023-01-29T16:44:39.379Z,102391.97
2023-01-29T16:47:14.955Z,102399.13
2023-01-29T16:49:50.079Z,102392.34
2023-01-29T16:52:29.639Z,102391.97
2023-01-29T16:55:23.309Z,102398.31
2023-01-29T16:57:55.808Z,102388.22
2023-01-29T17:00:29.071Z,102382.44
2023-01-29T17:03:07.082Z,102378.84
2023-01-29T17:05:37.252Z,102380.25
2023-01-29T17:08:05.986Z,102386.38
2023-01-29T17:10:33.921Z,102382.41
2023-01-29T17:13:07.467Z,102381.03
2023-01-29T17:15:43.336Z,102377.66
2023-01-29T17:18:18.532Z,102382.00
2023-01-29T17:20:45.686Z,102376.84
2023-01-29T17:23:12.612Z,102372.69
2023-01-29T17:25:39.926Z,102377.25
2023-01-29T17:28:07.365Z,102375.47
2023-01-29T17:30:37.432Z,102364.72
2023-01-29T17:33:18.731Z,102372.47
2023-01-29T17:35:46.018Z,102370.91
2023-01-29T17:38:25.050Z,102365.91
2023-01-29T17:41:00.485Z,102371.88
2023-01-29T17:43:27.558Z,102359.19
2023-01-29T17:45:54.680Z,102354.81
2023-01-29T17:48:26.937Z,102342.28
2023-01-29T17:50:57.173Z,102337.09
2023-01-29T17:53:43.296Z,102329.34
2023-01-29T17:56:21.867Z,102335.34
2023-01-29T17:58:48.802Z,102331.94
2023-01-29T18:01:18.784Z,102322.63
2023-01-29T18:03:45.763Z,102319.84
2023-01-29T18:06:35.949Z,102318.03
2023-01-29T18:09:06.337Z,102318.03
2023-01-29T18:11:34.662Z,102316.44
2023-01-29T18:14:10.880Z,102311.28
2023-01-29T18:16:43.739Z,102294.19
2023-01-29T18:19:24.057Z,102304.34
2023-01-29T18:21:51.346Z,102297.38
2023-01-29T18:24:18.950Z,102293.19
2023-01-29T18:26:45.886Z,102294.59
2023-01-29T18:29:13.271Z,102299.78
2023-01-29T18:31:45.737Z,102286.63
2023-01-29T18:34:12.934Z,102280.47
2023-01-29T18:36:47.198Z,102276.88
2023-01-29T18:39:15.653Z,102277.91
2023-01-29T18:41:42.784Z,102267.38
2023-01-29T18:44:11.322Z,102261.97
2023-01-29T18:46:38.167Z,102248.09
2023-01-29T18:49:05.501Z,102242.13
2023-01-29T18:51:32.550Z,102234.16
2023-01-29T18:54:02.185Z,102234.16
2023-01-29T18:56:29.133Z,102225.63
2023-01-29T18:58:56.468Z,102229.00
2023-01-29T19:01:23.990Z,102215.09
2023-01-29T19:03:51.109Z,102222.66
2023-01-29T19:06:18.002Z,102222.66
2023-01-29T19:08:45.125Z,102208.91
2023-01-29T19:11:12.780Z,102197.59
2023-01-29T19:13:40.626Z,102193.22
2023-01-29T19:16:12.260Z,102186.25
2023-01-29T19:18:40.024Z,102188.84
2023-01-29T19:21:12.877Z,102179.31
2023-01-29T19:23:55.049Z,102174.16
2023-01-29T19:26:22.088Z,102183.66
2023-01-29T19:28:49.023Z,102199.97
2023-01-29T19:31:15.905Z,102175.91
2023-01-29T19:33:42.658Z,102174.16
2023-01-29T19:36:10.023Z,102170.75
2023-01-29T19:38:38.814Z,102173.34
2023-01-29T19:41:06.187Z,102182.69
2023-01-29T19:43:33.245Z,102173.13
2023-01-29T19:46:01.587Z,102162.59
2023-01-29T19:48:28.808Z,102165.19
2023-01-29T19:50:58.511Z,102173.53
2023-01-29T19:53:27.249Z,102165.78
2023-01-29T19:56:06.538Z,102154.44
2023-01-29T19:58:34.352Z,102148.28
2023-01-29T20:01:24.993Z,102148.28
2023-01-29T20:03:52.161Z,102156.81
2023-01-29T20:06:23.493Z,102157.63
2023-01-29T20:08:50.496Z,102166.16
2023-01-29T20:11:20.007Z,102165.97
2023-01-29T20:13:48.762Z,102153.84
2023-01-29T20:16:17.522Z,102140.91
2023-01-29T20:18:44.890Z,102143.50
2023-01-29T20:21:14.564Z,102151.06
2023-01-29T20:23:41.655Z,102149.25
2023-01-29T20:26:12.001Z,102146.47
2023-01-29T20:28:39.465Z,102145.47
2023-01-29T20:31:07.814Z,102146.47
2023-01-29T20:33:38.770Z,102148.03
2023-01-29T20:36:08.490Z,102121.22
2023-01-29T20:38:35.498Z,102120.19
2023-01-29T20:41:17.077Z,102127.97
2023-01-29T20:43:45.274Z,102159.56
2023-01-29T20:46:13.468Z,102153.41
2023-01-29T20:48:42.199Z,102135.31
2023-01-29T20:51:15.763Z,102134.31
2023-01-29T20:53:45.989Z,102121.19
2023-01-29T20:56:13.938Z,102141.84
2023-01-29T20:58:43.738Z,102139.06
2023-01-29T21:01:12.275Z,102128.31
2023-01-29T21:03:39.916Z,102124.72
2023-01-29T21:06:08.804Z,102126.31
2023-01-29T21:08:36.790Z,102128.69
2023-01-29T21:11:05.207Z,102117.13
2023-01-29T21:13:32.104Z,102124.09
2023-01-29T21:15:59.537Z,102129.06
2023-01-29T21:18:26.576Z,102132.25
2023-01-29T21:20:56.688Z,102139.00
2023-01-29T21:23:26.715Z,102125.28
2023-01-29T21:26:00.762Z,102120.91
2023-01-29T21:28:31.015Z,102135.00
2023-01-29T21:31:29.735Z,102138.16
2023-01-29T21:34:04.885Z,102124.03
2023-01-29T21:36:55.393Z,102117.66
2023-01-29T21:39:34.699Z,102124.00
2023-01-29T21:42:32.770Z,102120.41
2023-01-29T21:44:59.696Z,102130.13
2023-01-29T21:47:26.532Z,102103.25
2023-01-29T21:49:55.108Z,102083.97
2023-01-29T21:52:24.891Z,102074.19
2023-01-29T21:55:23.951Z,102055.09
2023-01-29T21:57:51.204Z,102042.31
2023-01-29T22:00:30.992Z,102039.75
2023-01-29T22:03:09.481Z,102018.59
2023-01-29T22:05:36.551Z,102004.69
2023-01-29T22:08:06.664Z,102002.66
2023-01-29T22:13:39.189Z,101981.53
2023-01-29T22:16:09.948Z,101983.13
2023-01-29T22:18:40.065Z,102015.75
2023-01-29T22:21:07.039Z,102021.28
2023-01-29T22:23:33.793Z,102011.72
2023-01-29T22:26:09.073Z,101994.19
2023-01-29T22:28:36.087Z,101973.28
2023-01-29T22:31:04.485Z,101987.81
2023-01-29T22:33:31.956Z,101987.38
2023-01-29T22:35:58.848Z,101989.75
2023-01-29T22:38:26.094Z,101987.94
2023-01-29T22:40:54.577Z,101990.91
2023-01-29T22:43:22.216Z,101978.56
2023-01-29T22:45:49.149Z,101964.59
2023-01-29T22:48:16.079Z,101965.97
2023-01-29T22:50:43.227Z,101947.41
2023-01-29T22:53:10.162Z,101948.78
2023-01-29T22:55:37.126Z,101942.41
2023-01-29T22:58:04.021Z,101935.19
2023-01-29T23:00:30.866Z,101928.59
2023-01-29T23:02:57.755Z,101945.47
2023-01-29T23:05:24.648Z,101969.91
2023-01-29T23:07:51.478Z,101958.56
2023-01-29T23:10:18.730Z,101950.56
2023-01-29T23:12:45.677Z,101939.56
2023-01-29T23:15:12.550Z,101945.91
2023-01-29T23:17:39.921Z,101939.69
2023-01-29T23:20:07.482Z,101935.66
2023-01-29T23:22:34.631Z,101927.47
2023-01-29T23:25:02.906Z,101922.84
2023-01-29T23:27:29.866Z,101933.78
2023-01-29T23:29:56.754Z,101916.22
2023-01-29T23:32:23.655Z,101912.19
2023-01-29T23:34:50.469Z,101899.03
2023-01-29T23:37:17.342Z,101887.41
2023-01-29T23:39:44.291Z,101883.38
2023-01-29T23:42:11.208Z,101884.16
2023-01-29T23:44:38.101Z,101872.59
2023-01-29T23:47:04.979Z,101863.34
2023-01-29T23:49:32.087Z,101874.28
2023-01-29T23:51:58.935Z,101882.84
2023-01-29T23:54:25.809Z,101868.06
2023-01-29T23:56:52.789Z,101873.81
2023-01-29T23:59:19.741Z,101868.44
